Time;durP1;ratioP1;P1;durP2;ratioP2;P2;SDS_P1;SDS_P2;PMS_P1;PMS_P2;Temp;Humidity;BMP_temperature;BMP_pressure;BME280_temperature;BME280_humidity;BME280_pressure;Samples;Min_cycle;Max_cycle;Signal;HPM_P1;HPM_P2
2022/05/19 00:01:38;;;;;;;3.95;2.08;;;18.80;53.30;;;;;;5075264;28;20024;-74
2022/05/19 00:04:04;;;;;;;4.32;2.10;;;18.80;53.20;;;;;;5092245;28;20144;-74
2022/05/19 00:06:30;;;;;;;6.55;2.53;;;18.80;53.20;;;;;;5092008;28;20035;-74
2022/05/19 00:08:55;;;;;;;4.53;1.80;;;18.80;53.50;;;;;;5091866;28;20039;-75
2022/05/19 00:11:27;;;;;;;6.03;2.28;;;18.70;54.50;;;;;;5091593;28;20032;-74
2022/05/19 00:13:53;;;;;;;2.83;1.85;;;18.70;53.60;;;;;;5090907;28;20020;-74
2022/05/19 00:16:18;;;;;;;2.20;1.92;;;18.70;53.70;;;;;;5091736;28;20039;-73
2022/05/19 00:18:44;;;;;;;3.58;2.22;;;18.70;53.90;;;;;;5091990;28;20012;-73
2022/05/19 00:21:10;;;;;;;3.70;2.15;;;18.70;53.70;;;;;;5091438;28;20063;-73
2022/05/19 00:23:35;;;;;;;5.47;2.38;;;18.70;53.70;;;;;;5092033;28;20475;-74
2022/05/19 00:26:01;;;;;;;4.53;2.00;;;18.60;53.50;;;;;;5092154;28;20060;-74
2022/05/19 00:28:26;;;;;;;2.55;1.83;;;18.60;53.70;;;;;;5091653;28;20020;-73
2022/05/19 00:30:52;;;;;;;2.60;2.17;;;18.60;53.70;;;;;;5091413;28;20538;-74
2022/05/19 00:33:18;;;;;;;4.25;2.03;;;18.60;53.40;;;;;;5091839;28;20016;-73
2022/05/19 00:35:43;;;;;;;5.28;1.90;;;18.60;53.90;;;;;;5091576;28;20054;-74
2022/05/19 00:38:09;;;;;;;5.18;1.92;;;18.50;53.10;;;;;;5091732;28;20022;-74
2022/05/19 00:40:35;;;;;;;5.95;1.98;;;18.50;53.10;;;;;;5092899;28;20074;-74
2022/05/19 00:43:00;;;;;;;4.03;2.28;;;18.50;52.90;;;;;;5091673;28;20020;-74
2022/05/19 00:45:33;;;;;;;4.25;2.42;;;18.40;53.00;;;;;;5091165;28;20024;-74
2022/05/19 00:48:08;;;;;;;3.47;1.90;;;18.40;53.30;;;;;;5091523;28;20024;-74
2022/05/19 00:50:38;;;;;;;3.67;2.00;;;18.40;53.50;;;;;;5091518;28;20032;-83
2022/05/19 00:53:12;;;;;;;9.38;2.38;;;18.40;53.70;;;;;;5092914;28;20089;-75
2022/05/19 00:55:42;;;;;;;3.95;2.25;;;18.30;53.60;;;;;;5091551;28;20024;-84
2022/05/19 00:58:22;;;;;;;4.93;2.20;;;18.20;54.00;;;;;;5092801;28;20063;-74
2022/05/19 01:00:47;;;;;;;8.30;2.55;;;18.20;54.20;;;;;;5091448;28;20384;-74
2022/05/19 01:03:16;;;;;;;6.78;1.85;;;18.20;54.30;;;;;;5090992;28;20024;-74
2022/05/19 01:05:47;;;;;;;3.58;1.90;;;18.10;53.90;;;;;;5091415;28;20447;-74
2022/05/19 01:08:28;;;;;;;5.43;1.80;;;18.10;54.00;;;;;;5091605;28;20472;-74
2022/05/19 01:10:55;;;;;;;2.60;2.10;;;18.10;53.80;;;;;;5091544;28;20039;-74
2022/05/19 01:13:22;;;;;;;3.38;2.05;;;18.10;53.20;;;;;;5092571;28;20054;-74
2022/05/19 01:15:54;;;;;;;3.80;2.10;;;18.10;53.10;;;;;;5091076;28;20032;-74
2022/05/19 01:18:20;;;;;;;5.75;2.20;;;18.10;53.20;;;;;;5091267;28;20058;-84
2022/05/19 01:20:47;;;;;;;5.38;2.22;;;18.00;53.20;;;;;;5092269;28;20071;-74
2022/05/19 01:23:21;;;;;;;7.80;2.22;;;18.00;53.40;;;;;;5091261;28;20050;-74
2022/05/19 01:26:12;;;;;;;5.60;2.07;;;18.00;53.20;;;;;;5075843;28;20055;-74
2022/05/19 01:28:38;;;;;;;7.60;2.17;;;18.00;53.40;;;;;;5094832;28;20028;-75
2022/05/19 01:31:03;;;;;;;3.80;1.77;;;17.90;53.40;;;;;;5094891;28;20024;-74
2022/05/19 01:33:29;;;;;;;3.17;1.75;;;17.90;53.30;;;;;;5094810;28;20020;-73
2022/05/19 01:35:55;;;;;;;2.08;1.52;;;17.90;53.30;;;;;;5094769;28;20119;-74
2022/05/19 01:38:30;;;;;;;4.13;1.80;;;17.90;52.90;;;;;;5094609;28;20048;-74
2022/05/19 01:41:18;;;;;;;4.03;1.92;;;17.90;52.70;;;;;;5094683;28;20031;-74
2022/05/19 01:43:55;;;;;;;2.53;1.52;;;17.90;52.80;;;;;;5094895;28;20043;-74
2022/05/19 01:46:36;;;;;;;4.85;1.83;;;17.80;54.00;;;;;;5094668;28;20119;-74
2022/05/19 01:49:17;;;;;;;3.17;1.50;;;17.60;53.20;;;;;;5087575;28;20036;-74
2022/05/19 01:52:01;;;;;;;3.03;2.05;;;17.60;53.30;;;;;;5094498;28;20024;-73
2022/05/19 01:54:51;;;;;;;4.55;1.83;;;17.50;54.00;;;;;;5077958;28;20465;-74
2022/05/19 01:57:27;;;;;;;4.97;1.90;;;17.40;53.80;;;;;;5099209;28;20039;-73
2022/05/19 02:00:21;;;;;;;3.53;1.83;;;17.30;54.20;;;;;;5094205;28;20024;-74
2022/05/19 02:03:13;;;;;;;3.80;1.90;;;17.40;53.10;;;;;;5090333;28;20036;-74
2022/05/19 02:05:56;;;;;;;3.42;1.70;;;17.40;52.80;;;;;;5089353;28;20028;-74
2022/05/19 02:08:43;;;;;;;3.60;1.60;;;17.50;52.70;;;;;;5094120;28;20027;-74
2022/05/19 02:11:24;;;;;;;1.95;1.40;;;17.50;53.00;;;;;;5077440;28;20039;-74
2022/05/19 02:13:50;;;;;;;2.38;1.90;;;17.50;53.10;;;;;;5094480;28;20171;-73
2022/05/19 02:16:18;;;;;;;5.20;1.63;;;17.60;52.70;;;;;;5094070;28;20020;-74
2022/05/19 02:18:45;;;;;;;9.68;2.05;;;17.60;53.00;;;;;;5089348;28;20456;-74
2022/05/19 02:21:11;;;;;;;3.00;1.33;;;17.50;52.90;;;;;;5093954;28;20074;-74
2022/05/19 02:23:39;;;;;;;5.55;2.03;;;17.50;53.10;;;;;;5094054;28;20123;-74
2022/05/19 02:26:04;;;;;;;4.18;1.80;;;17.50;53.50;;;;;;5093865;28;20076;-75
2022/05/19 02:28:35;;;;;;;2.47;1.60;;;17.60;53.40;;;;;;5093536;28;20384;-74
2022/05/19 02:31:01;;;;;;;1.98;1.50;;;17.50;53.80;;;;;;5093625;28;20067;-74
2022/05/19 02:33:27;;;;;;;4.22;1.52;;;17.50;53.80;;;;;;5093621;28;20122;-74
2022/05/19 02:35:53;;;;;;;5.65;2.38;;;17.60;54.30;;;;;;5090469;28;20452;-74
2022/05/19 02:38:20;;;;;;;2.88;1.80;;;17.50;54.70;;;;;;5093072;28;20078;-75
2022/05/19 02:40:47;;;;;;;5.93;1.77;;;17.40;54.70;;;;;;5093712;28;20026;-74
2022/05/19 02:43:14;;;;;;;5.28;2.00;;;17.30;55.10;;;;;;5093671;28;20024;-74
2022/05/19 02:45:41;;;;;;;2.38;1.83;;;17.30;55.30;;;;;;5093811;28;20024;-74
2022/05/19 02:48:09;;;;;;;4.55;2.00;;;17.30;55.60;;;;;;5093511;28;20052;-74
2022/05/19 02:50:35;;;;;;;5.25;1.90;;;17.30;55.90;;;;;;5093672;28;20119;-74
2022/05/19 02:53:01;;;;;;;4.60;1.90;;;17.30;56.10;;;;;;5093311;28;20024;-74
2022/05/19 02:55:27;;;;;;;4.10;2.13;;;17.30;56.20;;;;;;5093854;28;20032;-73
2022/05/19 02:57:52;;;;;;;5.13;2.08;;;17.20;56.60;;;;;;5092795;28;20020;-74
2022/05/19 03:00:22;;;;;;;3.88;1.95;;;17.20;56.80;;;;;;5093406;28;20065;-73
2022/05/19 03:02:48;;;;;;;3.63;2.17;;;17.10;57.40;;;;;;5094334;28;20051;-73
2022/05/19 03:05:18;;;;;;;3.53;1.98;;;17.00;57.70;;;;;;5092990;28;20076;-74
2022/05/19 03:07:45;;;;;;;4.03;2.10;;;17.00;57.90;;;;;;5093094;28;20020;-73
2022/05/19 03:10:11;;;;;;;4.53;2.50;;;16.90;58.10;;;;;;5093136;28;20491;-73
2022/05/19 03:12:36;;;;;;;5.13;2.47;;;16.70;59.00;;;;;;5093134;28;20025;-73
2022/05/19 03:15:03;;;;;;;5.28;2.33;;;16.60;59.40;;;;;;5092819;28;20028;-73
2022/05/19 03:17:29;;;;;;;4.45;2.60;;;16.40;60.00;;;;;;5092749;28;20021;-73
2022/05/19 03:19:55;;;;;;;9.10;2.80;;;16.30;60.40;;;;;;5093101;28;20384;-74
2022/05/19 03:22:21;;;;;;;6.18;2.20;;;16.30;60.70;;;;;;5092861;28;20365;-73
2022/05/19 03:24:47;;;;;;;4.05;1.92;;;16.30;61.00;;;;;;5092780;28;20024;-73
2022/05/19 03:27:13;;;;;;;4.93;2.20;;;16.20;61.30;;;;;;5092824;28;20020;-73
2022/05/19 03:29:39;;;;;;;6.32;3.13;;;16.20;61.20;;;;;;5092702;28;20032;-73
2022/05/19 03:32:05;;;;;;;5.15;2.50;;;16.20;61.50;;;;;;5092791;28;20031;-73
2022/05/19 03:34:30;;;;;;;7.78;2.75;;;16.20;61.80;;;;;;5094477;28;20078;-73
2022/05/19 03:36:56;;;;;;;4.97;2.58;;;16.10;62.40;;;;;;5092932;28;20020;-73
2022/05/19 03:39:22;;;;;;;5.05;2.95;;;16.00;63.20;;;;;;5092860;28;20028;-73
2022/05/19 03:41:48;;;;;;;4.43;2.45;;;15.90;63.90;;;;;;5092081;28;20024;-73
2022/05/19 03:44:13;;;;;;;2.85;2.28;;;15.70;65.00;;;;;;5092422;28;20510;-73
2022/05/19 03:46:39;;;;;;;3.25;2.33;;;15.70;64.90;;;;;;5092105;28;20461;-73
2022/05/19 03:49:05;;;;;;;3.35;1.92;;;15.60;64.70;;;;;;5091199;28;20117;-73
2022/05/19 03:51:32;;;;;;;4.05;2.40;;;15.70;64.40;;;;;;5092295;28;20039;-73
2022/05/19 03:53:59;;;;;;;7.03;2.15;;;15.70;64.00;;;;;;5092040;28;20107;-73
2022/05/19 03:56:25;;;;;;;2.00;1.63;;;15.90;63.70;;;;;;5092296;28;20431;-74
2022/05/19 03:58:52;;;;;;;3.00;2.15;;;16.00;63.20;;;;;;5091867;28;20020;-73
2022/05/19 04:01:19;;;;;;;4.25;2.30;;;16.10;62.90;;;;;;5092150;28;20035;-73
2022/05/19 04:03:45;;;;;;;3.38;2.30;;;16.20;62.70;;;;;;5092064;28;20079;-73
2022/05/19 04:06:11;;;;;;;7.10;2.47;;;16.20;62.70;;;;;;5092313;28;20032;-74
2022/05/19 04:08:36;;;;;;;3.95;2.40;;;16.30;62.50;;;;;;5092076;28;20107;-73
2022/05/19 04:11:02;;;;;;;3.50;2.08;;;16.30;62.30;;;;;;5091863;28;20035;-74
2022/05/19 04:13:28;;;;;;;9.05;3.15;;;16.30;62.40;;;;;;5091976;28;20073;-73
2022/05/19 04:15:54;;;;;;;4.88;2.53;;;16.40;63.20;;;;;;5091804;28;20031;-74
2022/05/19 04:18:19;;;;;;;3.33;1.98;;;16.50;62.50;;;;;;5091737;28;20024;-74
2022/05/19 04:20:45;;;;;;;3.95;2.50;;;16.50;62.10;;;;;;5091573;28;20052;-74
2022/05/19 04:23:11;;;;;;;6.50;2.67;;;16.60;61.90;;;;;;5091868;28;20032;-73
2022/05/19 04:25:38;;;;;;;5.78;2.78;;;16.50;61.80;;;;;;5091855;28;20476;-74
2022/05/19 04:28:04;;;;;;;6.93;2.85;;;16.50;62.10;;;;;;5091627;28;20066;-73
2022/05/19 04:30:30;;;;;;;5.00;3.38;;;16.50;61.70;;;;;;5091388;28;20036;-74
2022/05/19 04:32:56;;;;;;;7.72;3.00;;;16.40;61.90;;;;;;5092495;28;20020;-74
2022/05/19 04:35:22;;;;;;;4.82;2.47;;;16.40;62.30;;;;;;5102729;28;20106;-73
2022/05/19 04:37:47;;;;;;;4.70;2.72;;;16.40;62.30;;;;;;5103390;28;20024;-73
2022/05/19 04:40:16;;;;;;;5.30;2.75;;;16.50;62.40;;;;;;5104238;28;20046;-73
2022/05/19 04:42:42;;;;;;;6.53;2.75;;;16.40;62.30;;;;;;5101763;28;20024;-73
2022/05/19 04:45:09;;;;;;;7.45;2.65;;;16.50;62.10;;;;;;5095688;28;20025;-74
2022/05/19 04:47:35;;;;;;;5.07;2.40;;;16.40;62.10;;;;;;5095339;28;20480;-76
2022/05/19 04:50:01;;;;;;;9.00;2.70;;;16.50;61.80;;;;;;5093229;28;20035;-72
2022/05/19 04:52:27;;;;;;;3.90;2.58;;;16.60;61.60;;;;;;5094764;28;20465;-74
2022/05/19 04:54:52;;;;;;;4.95;2.45;;;16.70;62.20;;;;;;5100810;28;20052;-75
2022/05/19 04:57:18;;;;;;;5.10;2.47;;;16.80;60.80;;;;;;5098571;28;20404;-75
2022/05/19 04:59:44;;;;;;;4.95;2.42;;;16.90;60.90;;;;;;5095049;28;20029;-74
2022/05/19 05:02:11;;;;;;;9.07;2.78;;;16.90;60.80;;;;;;5095263;28;20362;-75
2022/05/19 05:04:37;;;;;;;7.78;2.70;;;16.90;60.80;;;;;;5061812;28;20028;-75
2022/05/19 05:07:04;;;;;;;3.40;2.53;;;17.00;60.70;;;;;;5095495;28;20387;-75
2022/05/19 05:09:30;;;;;;;8.80;2.70;;;17.10;60.50;;;;;;5102331;28;20052;-74
2022/05/19 05:11:55;;;;;;;6.82;2.70;;;17.10;60.50;;;;;;5099614;28;20023;-76
2022/05/19 05:14:22;;;;;;;6.90;2.88;;;17.10;60.10;;;;;;5095755;28;20031;-75
2022/05/19 05:16:49;;;;;;;5.22;2.90;;;17.20;60.20;;;;;;5095384;28;20134;-74
2022/05/19 05:19:19;;;;;;;10.85;3.10;;;17.10;60.40;;;;;;5094337;28;20220;-74
2022/05/19 05:21:45;;;;;;;7.43;3.08;;;17.20;60.40;;;;;;5094364;28;20040;-74
2022/05/19 05:24:13;;;;;;;5.28;2.85;;;17.20;60.20;;;;;;5094355;28;20143;-75
2022/05/19 05:26:39;;;;;;;4.82;2.78;;;17.20;60.60;;;;;;5094629;28;20032;-76
2022/05/19 05:29:04;;;;;;;5.68;3.00;;;17.30;60.40;;;;;;5093815;28;20035;-75
2022/05/19 05:31:30;;;;;;;6.30;2.95;;;17.50;60.30;;;;;;5060357;28;20512;-74
2022/05/19 05:33:59;;;;;;;5.35;2.83;;;17.60;60.00;;;;;;5094268;28;20109;-75
2022/05/19 05:36:24;;;;;;;3.92;2.60;;;17.80;59.80;;;;;;5094421;28;20449;-75
2022/05/19 05:38:50;;;;;;;5.78;2.50;;;18.00;59.20;;;;;;5094638;28;20120;-75
2022/05/19 05:41:16;;;;;;;6.43;3.08;;;18.10;58.90;;;;;;5094136;28;20024;-75
2022/05/19 05:43:42;;;;;;;4.50;2.67;;;18.30;58.40;;;;;;5094668;28;20020;-77
2022/05/19 05:46:14;;;;;;;3.92;2.53;;;18.40;57.80;;;;;;5094500;28;20024;-76
2022/05/19 05:48:46;;;;;;;8.90;2.90;;;18.50;57.40;;;;;;5094449;28;20020;-74
2022/05/19 05:51:13;;;;;;;3.30;2.53;;;18.70;57.10;;;;;;5094485;28;20036;-73
2022/05/19 05:53:42;;;;;;;4.68;2.42;;;18.90;56.80;;;;;;5094527;28;20024;-78
2022/05/19 05:56:09;;;;;;;4.38;2.40;;;19.00;56.20;;;;;;5094067;28;20028;-76
2022/05/19 05:58:36;;;;;;;5.38;2.50;;;19.10;55.80;;;;;;5094429;28;20024;-75
2022/05/19 06:01:03;;;;;;;6.68;2.65;;;19.20;55.70;;;;;;5094404;28;20031;-75
2022/05/19 06:03:29;;;;;;;3.22;2.17;;;19.40;55.40;;;;;;5093682;28;20024;-74
2022/05/19 06:05:54;;;;;;;5.15;2.55;;;19.60;55.20;;;;;;5093863;28;20416;-76
2022/05/19 06:08:20;;;;;;;4.40;2.47;;;19.70;54.90;;;;;;5093977;28;20074;-74
2022/05/19 06:10:46;;;;;;;4.82;2.20;;;19.90;54.50;;;;;;5093505;28;20114;-75
2022/05/19 06:13:13;;;;;;;4.18;2.35;;;20.00;54.10;;;;;;5092234;28;20020;-75
2022/05/19 06:15:39;;;;;;;5.30;2.10;;;20.20;53.50;;;;;;5093800;28;20035;-76
2022/05/19 06:18:05;;;;;;;4.70;2.33;;;20.40;53.20;;;;;;5093904;28;20019;-76
2022/05/19 06:20:31;;;;;;;4.00;2.60;;;20.60;52.90;;;;;;5059832;28;20060;-76
2022/05/19 06:22:58;;;;;;;5.55;3.22;;;20.70;52.80;;;;;;5093618;28;20028;-75
2022/05/19 06:25:25;;;;;;;4.15;2.08;;;20.90;52.70;;;;;;5093979;28;20630;-75
2022/05/19 06:27:51;;;;;;;12.40;3.85;;;21.00;52.40;;;;;;5060351;28;20034;-74
2022/05/19 06:30:18;;;;;;;56.28;7.60;;;21.20;53.60;;;;;;5085459;28;20553;-74
2022/05/19 06:32:45;;;;;;;15.27;4.13;;;21.50;56.60;;;;;;5093504;28;20107;-74
2022/05/19 06:35:12;;;;;;;7.97;2.95;;;21.70;52.40;;;;;;5093538;28;20035;-75
2022/05/19 06:37:38;;;;;;;5.72;2.72;;;21.90;50.90;;;;;;5088146;28;20023;-75
2022/05/19 06:40:06;;;;;;;8.73;2.90;;;22.00;50.40;;;;;;5093746;28;20392;-75
2022/05/19 06:42:31;;;;;;;8.90;2.83;;;22.20;49.90;;;;;;5093433;28;20020;-74
2022/05/19 06:44:57;;;;;;;8.00;3.25;;;22.30;50.00;;;;;;5094819;28;20060;-77
2022/05/19 06:47:23;;;;;;;11.38;2.92;;;22.50;50.70;;;;;;5089910;28;20061;-77
2022/05/19 06:49:51;;;;;;;14.32;3.08;;;22.70;50.90;;;;;;5083743;28;20133;-74
2022/05/19 06:52:20;;;;;;;9.02;2.97;;;22.80;50.00;;;;;;5076489;28;20115;-74
2022/05/19 06:54:47;;;;;;;7.15;2.90;;;23.10;49.10;;;;;;5076383;28;20077;-73
2022/05/19 06:57:13;;;;;;;4.82;2.63;;;23.20;48.80;;;;;;5076348;28;20024;-76
2022/05/19 06:59:39;;;;;;;6.15;2.20;;;23.30;48.90;;;;;;5076190;28;20039;-74
2022/05/19 07:02:06;;;;;;;4.72;2.40;;;23.50;48.50;;;;;;5076080;28;20036;-74
2022/05/19 07:04:32;;;;;;;6.15;2.40;;;23.70;47.90;;;;;;5075385;28;20123;-77
2022/05/19 07:06:58;;;;;;;3.22;2.35;;;23.80;47.30;;;;;;5076173;28;20425;-74
2022/05/19 07:09:24;;;;;;;6.03;2.22;;;24.00;47.20;;;;;;5076019;28;20100;-74
2022/05/19 07:11:50;;;;;;;8.13;2.20;;;24.20;46.80;;;;;;5075942;28;20071;-76
2022/05/19 07:14:15;;;;;;;6.05;2.33;;;24.30;46.50;;;;;;5075620;28;20107;-75
2022/05/19 07:16:44;;;;;;;9.68;2.63;;;24.40;45.40;;;;;;5075210;28;20043;-76
2022/05/19 07:21:54;;;;;;;2.97;2.13;;;24.60;45.10;;;;;;5094189;28;20634;-76
2022/05/19 07:24:21;;;;;;;3.33;2.10;;;24.80;45.20;;;;;;5075463;28;20074;-76
2022/05/19 07:26:50;;;;;;;3.85;2.00;;;24.90;45.00;;;;;;5075469;28;20107;-76
2022/05/19 07:29:18;;;;;;;4.25;2.28;;;25.00;44.50;;;;;;5075471;28;20039;-76
2022/05/19 07:31:43;;;;;;;6.78;2.40;;;25.20;44.30;;;;;;5075220;28;20043;-76
2022/05/19 07:34:13;;;;;;;7.15;2.30;;;25.30;43.80;;;;;;5075689;28;20020;-76
2022/05/19 07:36:39;;;;;;;5.10;2.20;;;25.40;43.70;;;;;;5075582;28;20020;-76
2022/05/19 07:39:05;;;;;;;5.22;2.45;;;25.50;43.70;;;;;;5075739;28;20380;-76
2022/05/19 07:41:33;;;;;;;7.32;2.17;;;25.50;42.10;;;;;;5076006;28;20020;-76
2022/05/19 07:43:59;;;;;;;8.30;2.40;;;25.50;41.60;;;;;;5075462;28;20020;-76
2022/05/19 07:46:26;;;;;;;8.73;4.53;;;25.60;42.10;;;;;;5075883;28;20024;-77
2022/05/19 07:48:56;;;;;;;3.50;2.53;;;25.50;42.30;;;;;;5058808;28;20028;-77
2022/05/19 07:51:25;;;;;;;4.50;3.10;;;25.50;41.70;;;;;;5075136;28;20058;-77
2022/05/19 07:53:51;;;;;;;4.55;2.55;;;25.60;42.70;;;;;;5075311;28;20032;-77
2022/05/19 07:56:17;;;;;;;6.78;2.30;;;25.60;41.30;;;;;;5075188;28;20046;-77
2022/05/19 07:58:43;;;;;;;2.90;2.30;;;25.70;40.90;;;;;;5075065;28;20527;-77
2022/05/19 08:01:09;;;;;;;5.60;2.33;;;25.60;40.80;;;;;;5074962;28;20059;-77
2022/05/19 08:03:35;;;;;;;5.50;2.40;;;25.70;40.70;;;;;;5074620;28;20063;-77
2022/05/19 08:06:01;;;;;;;6.63;2.50;;;25.80;40.80;;;;;;5074360;28;20392;-77
2022/05/19 08:08:26;;;;;;;7.10;2.42;;;25.80;40.30;;;;;;5074525;28;20066;-77
2022/05/19 08:10:53;;;;;;;6.95;2.55;;;25.70;40.00;;;;;;5079563;28;20473;-77
2022/05/19 08:16:04;;;;;;;5.40;2.20;;;25.90;40.60;;;;;;5093438;28;20031;-77
2022/05/19 08:18:30;;;;;;;5.63;2.22;;;26.00;40.10;;;;;;5075186;28;20380;-77
2022/05/19 08:21:01;;;;;;;7.35;3.35;;;26.10;39.30;;;;;;5074934;28;20083;-78
2022/05/19 08:23:34;;;;;;;7.07;2.55;;;26.20;38.60;;;;;;5077516;28;20032;-77
2022/05/19 08:26:01;;;;;;;5.00;2.35;;;26.30;38.80;;;;;;5085886;28;20054;-77
2022/05/19 08:28:30;;;;;;;7.30;2.65;;;26.30;37.40;;;;;;5058328;28;20039;-78
2022/05/19 08:31:06;;;;;;;5.57;2.20;;;26.30;37.80;;;;;;5089844;28;20161;-78
2022/05/19 08:33:34;;;;;;;8.38;2.55;;;26.40;37.00;;;;;;5074652;28;20020;-77
2022/05/19 08:36:05;;;;;;;4.00;2.35;;;26.20;36.50;;;;;;5091068;28;20546;-77
2022/05/19 08:38:36;;;;;;;6.53;2.78;;;26.20;37.10;;;;;;5097405;28;20030;-79
2022/05/19 08:41:15;;;;;;;6.50;2.40;;;26.20;37.20;;;;;;5100119;28;20095;-76
2022/05/19 08:43:57;;;;;;;6.70;2.55;;;26.30;37.80;;;;;;5095419;28;20035;-76
2022/05/19 08:46:30;;;;;;;7.45;2.60;;;26.30;36.60;;;;;;5092969;28;20020;-77
2022/05/19 08:49:10;;;;;;;8.27;2.92;;;26.30;37.60;;;;;;5059774;28;20032;-78
2022/05/19 08:51:42;;;;;;;11.35;3.40;;;26.30;37.70;;;;;;5087638;28;20059;-80
2022/05/19 08:54:14;;;;;;;6.25;2.20;;;26.30;37.30;;;;;;5086481;28;20107;-79
2022/05/19 08:56:47;;;;;;;7.72;2.78;;;26.30;36.70;;;;;;5101443;28;20008;-78
2022/05/19 08:59:48;;;;;;;7.90;2.90;;;26.30;37.50;;;;;;5095667;28;20040;-79
2022/05/19 09:02:20;;;;;;;6.88;2.42;;;26.30;37.40;;;;;;5077071;28;20077;-78
2022/05/19 09:05:00;;;;;;;5.78;2.50;;;26.40;37.30;;;;;;5075101;28;20073;-79
2022/05/19 09:08:00;;;;;;;6.40;2.75;;;26.50;37.90;;;;;;5075940;28;20046;-81
2022/05/19 09:10:59;;;;;;;10.38;3.03;;;26.70;36.20;;;;;;5075085;28;20051;-80
2022/05/19 09:13:37;;;;;;;5.90;2.50;;;26.70;36.20;;;;;;5076375;28;20020;-80
2022/05/19 09:16:13;;;;;;;6.03;2.97;;;26.90;34.80;;;;;;5078194;28;20033;-79
2022/05/19 09:18:44;;;;;;;6.57;2.42;;;26.90;33.80;;;;;;5085030;28;20371;-79
2022/05/19 09:21:11;;;;;;;6.82;2.58;;;26.90;34.00;;;;;;5094882;28;20461;-79
2022/05/19 09:23:40;;;;;;;6.22;2.10;;;27.00;34.50;;;;;;5094436;28;20051;-80
2022/05/19 09:26:43;;;;;;;6.95;2.30;;;27.10;34.00;;;;;;5091398;28;20107;-80
2022/05/19 09:29:12;;;;;;;7.85;2.15;;;27.20;31.90;;;;;;5094683;28;20047;-80
2022/05/19 09:31:46;;;;;;;6.47;2.35;;;27.20;33.50;;;;;;5094340;28;20030;-79
2022/05/19 09:34:12;;;;;;;5.30;2.13;;;27.20;33.50;;;;;;5094720;28;20019;-78
2022/05/19 09:36:52;;;;;;;4.53;2.10;;;27.30;32.90;;;;;;5091749;28;20074;-79
2022/05/19 09:39:19;;;;;;;11.57;2.28;;;27.40;32.50;;;;;;5074178;28;20032;-79
2022/05/19 09:41:51;;;;;;;6.63;2.45;;;27.60;31.30;;;;;;5074111;28;20175;-79
2022/05/19 09:44:27;;;;;;;8.85;2.40;;;27.60;32.00;;;;;;5090602;28;20154;-79
2022/05/19 09:46:53;;;;;;;5.93;2.00;;;27.70;31.20;;;;;;5074274;28;20135;-81
2022/05/19 09:49:32;;;;;;;6.20;2.17;;;27.80;30.40;;;;;;5095653;28;20028;-79
2022/05/19 09:52:04;;;;;;;3.42;1.80;;;27.90;29.70;;;;;;5095840;28;20479;-79
2022/05/19 09:54:32;;;;;;;4.78;2.05;;;28.10;30.20;;;;;;5077461;28;20020;-79
2022/05/19 09:57:09;;;;;;;10.68;2.30;;;28.20;29.80;;;;;;5077779;28;20024;-80
2022/05/19 09:59:56;;;;;;;6.88;2.55;;;28.30;29.70;;;;;;5077530;28;20020;-80
2022/05/19 10:02:30;;;;;;;6.60;2.40;;;28.30;28.80;;;;;;5076619;28;20040;-79
2022/05/19 10:04:58;;;;;;;7.10;1.80;;;28.30;29.20;;;;;;5077250;28;20168;-77
2022/05/19 10:07:35;;;;;;;5.80;2.00;;;28.30;26.90;;;;;;5076750;28;20453;-79
2022/05/19 10:10:15;;;;;;;8.27;2.53;;;28.40;26.30;;;;;;5076749;28;20463;-79
2022/05/19 10:12:48;;;;;;;3.30;1.95;;;28.40;26.00;;;;;;5077133;28;20047;-79
2022/05/19 10:15:16;;;;;;;4.93;2.08;;;28.30;26.70;;;;;;5077454;28;20028;-80
2022/05/19 10:18:06;;;;;;;8.13;2.17;;;28.40;26.30;;;;;;5077503;28;20039;-80
2022/05/19 10:20:42;;;;;;;6.60;1.98;;;28.40;26.80;;;;;;5076984;28;20044;-80
2022/05/19 10:23:19;;;;;;;5.07;2.28;;;28.50;25.00;;;;;;5076473;28;20024;-81
2022/05/19 10:26:01;;;;;;;5.03;1.90;;;28.60;26.00;;;;;;5076473;28;20028;-81
2022/05/19 10:31:46;;;;;;;6.68;2.35;;;28.60;26.00;;;;;;5094360;28;20047;-80
2022/05/19 10:34:27;;;;;;;5.78;2.63;;;28.40;26.40;;;;;;5076394;28;20028;-80
2022/05/19 10:37:23;;;;;;;7.85;2.60;;;28.50;26.80;;;;;;5076813;28;20016;-80
2022/05/19 10:40:15;;;;;;;4.03;1.95;;;28.70;26.20;;;;;;5076460;28;20035;-81
2022/05/19 10:43:05;;;;;;;5.07;2.10;;;28.80;26.50;;;;;;5015270;28;20137;-81
2022/05/19 10:45:35;;;;;;;9.18;3.63;;;29.00;26.90;;;;;;5015572;28;20112;-82
2022/05/19 10:48:35;;;;;;;4.15;2.05;;;29.10;27.00;;;;;;5014377;28;20041;-81
2022/05/19 10:51:07;;;;;;;9.55;2.53;;;29.10;26.80;;;;;;5014868;28;20109;-80
2022/05/19 10:53:53;;;;;;;8.65;2.35;;;29.30;27.10;;;;;;5014977;28;20019;-81
2022/05/19 10:56:53;;;;;;;4.90;1.88;;;29.50;24.20;;;;;;5014936;28;20102;-81
2022/05/19 10:59:45;;;;;;;11.05;2.10;;;29.50;23.60;;;;;;5006303;28;20022;-81
2022/05/19 11:02:23;;;;;;;5.22;1.95;;;29.60;24.80;;;;;;5014814;28;20230;-81
2022/05/19 11:05:09;;;;;;;5.47;2.83;;;29.60;25.40;;;;;;5014890;28;20025;-77
2022/05/19 11:08:12;;;;;;;7.53;2.63;;;29.50;25.30;;;;;;5014626;28;20539;-78
2022/05/19 11:11:11;;;;;;;6.53;2.30;;;29.50;25.40;;;;;;5014658;28;20463;-77
2022/05/19 11:14:00;;;;;;;10.57;2.15;;;29.80;24.20;;;;;;5041141;28;20035;-78
2022/05/19 11:16:41;;;;;;;6.72;2.40;;;29.80;23.80;;;;;;5093623;28;20031;-77
2022/05/19 11:19:30;;;;;;;8.88;2.65;;;29.70;23.30;;;;;;5076019;28;20055;-79
2022/05/19 11:22:11;;;;;;;4.43;2.17;;;29.40;24.70;;;;;;5092210;28;20499;-77
2022/05/19 11:28:00;;;;;;;7.97;2.40;;;29.80;24.40;;;;;;5055168;28;20084;-78
2022/05/19 11:30:36;;;;;;;5.00;2.10;;;30.00;25.00;;;;;;5075311;28;20548;-78
2022/05/19 11:33:05;;;;;;;9.00;2.38;;;30.20;24.50;;;;;;5075147;28;20043;-79
2022/05/19 11:35:46;;;;;;;7.20;2.78;;;30.30;23.70;;;;;;5075048;28;20024;-79
2022/05/19 11:38:41;;;;;;;6.40;2.38;;;30.40;23.30;;;;;;5059547;28;20073;-79
2022/05/19 11:41:28;;;;;;;;;;;30.50;24.70;;;;;;5075680;28;20420;-79
2022/05/19 11:44:03;;;;;;;7.82;2.53;;;30.60;24.80;;;;;;5074586;28;19904;-79
2022/05/19 11:46:52;;;;;;;8.95;2.25;;;31.00;24.00;;;;;;5075241;28;20472;-79
2022/05/19 11:55:40;;;;;;;5.72;2.70;;;31.40;23.10;;;;;;5093343;28;20116;-79
2022/05/19 11:58:24;;;;;;;5.90;2.35;;;31.00;23.00;;;;;;5075244;28;20081;-79
2022/05/19 12:00:52;;;;;;;6.00;2.65;;;31.00;23.50;;;;;;5074972;28;20042;-79
2022/05/19 12:03:34;;;;;;;5.05;2.22;;;31.10;24.70;;;;;;5074970;28;20028;-79
2022/05/19 12:06:12;;;;;;;6.78;2.38;;;31.30;23.60;;;;;;5074649;28;20024;-80
2022/05/19 12:08:57;;;;;;;4.72;2.22;;;31.10;22.80;;;;;;5074268;28;20039;-79
2022/05/19 12:11:25;;;;;;;;;;;31.20;22.80;;;;;;5074550;28;20063;-79
2022/05/19 12:14:24;;;;;;;5.40;2.33;;;31.20;23.30;;;;;;5074836;28;19953;-79
2022/05/19 12:16:56;;;;;;;3.08;1.98;;;31.30;22.80;;;;;;5074438;28;20026;-79
2022/05/19 12:19:43;;;;;;;4.97;1.95;;;31.50;22.60;;;;;;5074827;28;20077;-79
2022/05/19 12:22:17;;;;;;;4.68;2.42;;;31.50;21.60;;;;;;5074463;28;20115;-78
2022/05/19 12:25:00;;;;;;;10.05;2.17;;;30.90;22.70;;;;;;5074428;28;20055;-77
2022/05/19 12:27:54;;;;;;;5.97;2.83;;;30.90;23.50;;;;;;5075105;28;20032;-78
2022/05/19 12:33:35;;;;;;;5.20;2.33;;;30.60;24.60;;;;;;5077844;28;20047;-78
2022/05/19 12:36:18;;;;;;;6.30;2.40;;;30.80;24.30;;;;;;5075127;28;20028;-79
2022/05/19 12:38:46;;;;;;;7.07;3.05;;;30.90;24.10;;;;;;5074788;28;20021;-78
2022/05/19 12:41:24;;;;;;;6.28;2.20;;;31.20;24.30;;;;;;5092761;28;20025;-78
2022/05/19 12:43:51;;;;;;;5.65;2.50;;;31.20;24.10;;;;;;5074460;28;20085;-78
2022/05/19 12:46:38;;;;;;;9.13;2.90;;;31.00;24.50;;;;;;5075453;28;20044;-80
2022/05/19 12:49:18;;;;;;;8.15;2.60;;;30.80;24.00;;;;;;5074122;28;20059;-79
2022/05/19 12:51:55;;;;;;;6.82;2.40;;;30.40;25.60;;;;;;5074633;28;20024;-77
2022/05/19 12:54:27;;;;;;;7.63;2.55;;;30.20;26.10;;;;;;5074526;28;20111;-77
2022/05/19 12:56:54;;;;;;;8.90;2.75;;;30.20;28.70;;;;;;5074535;28;20024;-78
2022/05/19 12:59:26;;;;;;;9.32;2.53;;;30.10;29.30;;;;;;5074293;28;20020;-77
2022/05/19 13:02:08;;;;;;;4.55;2.67;;;30.10;29.10;;;;;;5074212;28;20032;-78
2022/05/19 13:04:39;;;;;;;5.10;2.35;;;30.50;29.70;;;;;;5074488;28;20349;-77
2022/05/19 13:07:15;;;;;;;6.10;2.50;;;31.00;30.00;;;;;;5074519;28;20031;-78
2022/05/19 13:09:50;;;;;;;6.55;2.45;;;31.50;27.40;;;;;;5092397;28;20024;-78
2022/05/19 13:12:20;;;;;;;5.38;2.67;;;31.70;25.60;;;;;;5074525;28;20024;-78
2022/05/19 13:14:53;;;;;;;9.10;2.72;;;32.00;27.20;;;;;;5074119;28;20472;-78
2022/05/19 13:17:29;;;;;;;5.80;2.75;;;32.00;28.60;;;;;;5092423;28;20028;-77
2022/05/19 13:19:54;;;;;;;4.85;2.25;;;31.90;29.20;;;;;;5073541;28;20123;-77
2022/05/19 13:22:32;;;;;;;4.95;2.88;;;31.40;29.20;;;;;;5076568;28;20111;-75
2022/05/19 13:25:14;;;;;;;5.07;2.20;;;31.10;29.70;;;;;;5078416;28;20413;-88
2022/05/19 13:30:43;;;;;;;6.13;2.80;;;30.90;29.10;;;;;;5096169;28;20123;-76
2022/05/19 13:33:20;;;;;;;13.73;3.17;;;30.20;31.60;;;;;;5078005;28;20418;-76
2022/05/19 13:35:46;;;;;;;6.28;3.20;;;29.30;31.80;;;;;;5078230;28;20082;-76